Etusivu
METAR-TAF:

METAR-TAF

Lentoasemat :

Huntsville, Alabama, Yhdysvallat

Leveyspiiri: 34-51-41N, Pituuspiiri: 086-33-26W, korkeus merenpinnasta: 230 m

Tämänhetkinen sää

Tämä raportti tehtiin 30 minuuttia sitten, kello 19.55 UTC
Tuuli 8 kn lännestä/lounaasta
Lämpötila 31°C
Kosteus 63%
Ilmanpaine 1014 hPa
Näkyvyys: 16.1 km
Hajanaisia pilviä 3900 ft:n korkeudessa
Hajanaisia pilviä 4700 ft:n korkeudessa

METAR: KMDQ 091955Z AUTO 25008KT 10SM SCT039 SCT047 31/23 A2993 RMK A02 T03140230

Aika: 15:25 (20:25 UTC)


TAF: puuttuu

Säähavainnot ja -ennusteet yli 4000 lentoasemalta (METAR- ja TAF-raportit).

Käytössä olevat sääasemat on merkitty karttaan keltaisilla ja punaisilla pisteillä.

Aseta hiiri pisteen päälle nähdäksesi sääaseman nimen.

Klikkaa sitten nähdäksesi säähavainnot ja -ennusteet.

Kartan vaihtaminen: klikkaa mustalla rastilla varustettuja vihreitä pisteitä, niin voit zoomata sisään; viivalla varustettua vihreää pistettä, niin voit zoomata ulos tai vihreitä nuolia, niin pääset viereisille kartoille.


METAR-TAF: